createdAt,value
2022-12-01T07:18:40.646Z,169.82
2022-12-01T07:21:17.015Z,174.55
2022-12-01T07:23:44.124Z,171.90
2022-12-01T07:26:14.482Z,175.35
2022-12-01T07:28:42.220Z,177.20
2022-12-01T07:31:19.129Z,186.63
2022-12-01T07:33:46.211Z,179.73
2022-12-01T07:36:14.292Z,180.10
2022-12-01T07:38:41.455Z,157.10
2022-12-01T07:41:12.015Z,174.55
2022-12-01T07:43:39.776Z,175.40
2022-12-01T07:46:17.227Z,187.85
2022-12-01T07:48:48.931Z,183.13
2022-12-01T07:51:16.888Z,201.02
2022-12-01T07:53:46.558Z,177.57
2022-12-01T07:56:13.980Z,185.32
2022-12-01T07:58:41.464Z,187.82
2022-12-01T08:01:17.754Z,192.25
2022-12-01T08:03:44.957Z,172.52
2022-12-01T08:06:12.306Z,182.13
2022-12-01T08:08:41.132Z,193.68
2022-12-01T08:11:17.664Z,186.98
2022-12-01T08:13:44.850Z,197.63
2022-12-01T08:16:15.459Z,178.68
2022-12-01T08:18:43.578Z,201.45
2022-12-01T08:21:15.392Z,195.25
2022-12-01T08:26:15.786Z,183.57
2022-12-01T08:28:43.364Z,190.75
2022-12-01T08:31:17.206Z,186.68
2022-12-01T08:33:44.337Z,198.40
2022-12-01T08:36:11.391Z,190.60
2022-12-01T08:38:38.361Z,188.90
2022-12-01T08:41:08.654Z,193.82
2022-12-01T08:44:00.351Z,207.20
2022-12-01T08:46:33.312Z,188.38
2022-12-01T08:49:01.123Z,189.38
2022-12-01T08:51:28.303Z,191.52
2022-12-01T08:53:57.689Z,191.98
2022-12-01T08:56:33.360Z,208.95
2022-12-01T08:59:00.900Z,183.85
2022-12-01T09:01:28.192Z,189.15
2022-12-01T09:04:08.804Z,188.88
2022-12-01T09:06:43.129Z,201.43
2022-12-01T09:09:16.669Z,209.90
2022-12-01T09:11:44.332Z,205.38
2022-12-01T09:14:13.229Z,191.77
2022-12-01T09:16:41.594Z,194.63
2022-12-01T09:19:08.793Z,174.82
2022-12-01T09:21:39.916Z,192.98
2022-12-01T09:24:08.075Z,197.10
2022-12-01T09:26:35.037Z,190.55
2022-12-01T09:29:09.797Z,192.43
2022-12-01T09:31:38.129Z,186.95
2022-12-01T09:34:08.283Z,187.40
2022-12-01T10:39:34.845Z,176.10
2022-12-01T10:42:29.695Z,188.60
2022-12-01T10:45:01.017Z,168.93
2022-12-01T10:47:32.175Z,167.77
2022-12-01T11:07:43.394Z,157.50
2022-12-01T16:52:53.443Z,108.88
